sensor_id;sensor_type;location;lat;lon;timestamp;pressure;altitude;pressure_sealevel;temperature;humidity
9059;BME280;4564;42.034;25.834;2023-05-22T00:01:04;99846.69;;;17.03;93.91
9059;BME280;4564;42.034;25.834;2023-05-22T00:03:31;99842.25;;;17.13;91.70
9059;BME280;4564;42.034;25.834;2023-05-22T00:05:59;99846.47;;;17.04;93.21
9059;BME280;4564;42.034;25.834;2023-05-22T00:08:25;99847.75;;;16.90;95.13
9059;BME280;4564;42.034;25.834;2023-05-22T00:10:52;99840.38;;;16.79;97.05
9059;BME280;4564;42.034;25.834;2023-05-22T00:13:19;99846.84;;;16.73;98.33
9059;BME280;4564;42.034;25.834;2023-05-22T00:15:46;99846.22;;;16.83;97.57
9059;BME280;4564;42.034;25.834;2023-05-22T00:18:12;99844.78;;;16.80;97.01
9059;BME280;4564;42.034;25.834;2023-05-22T00:20:39;99835.38;;;16.64;98.58
9059;BME280;4564;42.034;25.834;2023-05-22T00:23:07;99841.56;;;16.60;99.27
9059;BME280;4564;42.034;25.834;2023-05-22T00:25:35;99843.94;;;16.56;99.45
9059;BME280;4564;42.034;25.834;2023-05-22T00:28:02;99828.78;;;16.42;98.50
9059;BME280;4564;42.034;25.834;2023-05-22T00:30:29;99825.16;;;16.60;98.19
9059;BME280;4564;42.034;25.834;2023-05-22T00:32:56;99832.16;;;16.56;99.48
9059;BME280;4564;42.034;25.834;2023-05-22T00:35:22;99829.41;;;16.56;99.07
9059;BME280;4564;42.034;25.834;2023-05-22T00:37:49;99833.19;;;16.43;100.00
9059;BME280;4564;42.034;25.834;2023-05-22T00:40:17;99837.59;;;16.44;100.00
9059;BME280;4564;42.034;25.834;2023-05-22T00:42:43;99825.69;;;16.27;100.00
9059;BME280;4564;42.034;25.834;2023-05-22T00:45:11;99832.81;;;16.28;100.00
9059;BME280;4564;42.034;25.834;2023-05-22T00:47:38;99825.81;;;16.32;100.00
9059;BME280;4564;42.034;25.834;2023-05-22T00:50:06;99834.84;;;16.32;100.00
9059;BME280;4564;42.034;25.834;2023-05-22T00:52:33;99834.41;;;16.35;100.00
9059;BME280;4564;42.034;25.834;2023-05-22T00:55:00;99828.63;;;16.25;100.00
9059;BME280;4564;42.034;25.834;2023-05-22T00:57:29;99834.59;;;16.22;100.00
9059;BME280;4564;42.034;25.834;2023-05-22T00:59:58;99840.69;;;16.24;100.00
9059;BME280;4564;42.034;25.834;2023-05-22T01:02:25;99839.84;;;16.24;100.00
9059;BME280;4564;42.034;25.834;2023-05-22T01:04:52;99838.75;;;16.25;100.00
9059;BME280;4564;42.034;25.834;2023-05-22T01:07:22;99840.31;;;16.32;100.00
9059;BME280;4564;42.034;25.834;2023-05-22T01:09:49;99845.09;;;16.37;100.00
9059;BME280;4564;42.034;25.834;2023-05-22T01:12:18;99843.31;;;16.43;100.00
9059;BME280;4564;42.034;25.834;2023-05-22T01:14:47;99844.50;;;16.47;100.00
9059;BME280;4564;42.034;25.834;2023-05-22T01:17:18;99854.88;;;16.45;100.00
9059;BME280;4564;42.034;25.834;2023-05-22T01:19:53;99845.47;;;16.41;100.00
9059;BME280;4564;42.034;25.834;2023-05-22T01:22:29;99843.91;;;16.33;100.00
9059;BME280;4564;42.034;25.834;2023-05-22T01:25:05;99839.72;;;16.30;100.00
9059;BME280;4564;42.034;25.834;2023-05-22T01:27:54;99843.69;;;16.34;100.00
9059;BME280;4564;42.034;25.834;2023-05-22T01:30:47;99836.88;;;16.37;100.00
9059;BME280;4564;42.034;25.834;2023-05-22T01:33:15;99836.03;;;16.36;100.00
9059;BME280;4564;42.034;25.834;2023-05-22T01:35:42;99827.69;;;16.31;100.00
9059;BME280;4564;42.034;25.834;2023-05-22T01:38:10;99829.72;;;16.24;100.00
9059;BME280;4564;42.034;25.834;2023-05-22T01:40:37;99821.13;;;16.21;100.00
9059;BME280;4564;42.034;25.834;2023-05-22T01:43:04;99822.69;;;16.17;100.00
9059;BME280;4564;42.034;25.834;2023-05-22T01:45:31;99819.59;;;16.13;100.00
9059;BME280;4564;42.034;25.834;2023-05-22T01:47:59;99818.78;;;16.24;100.00
9059;BME280;4564;42.034;25.834;2023-05-22T01:50:26;99816.03;;;16.24;100.00
9059;BME280;4564;42.034;25.834;2023-05-22T01:52:53;99817.22;;;16.28;100.00
9059;BME280;4564;42.034;25.834;2023-05-22T01:55:22;99816.75;;;16.31;100.00
9059;BME280;4564;42.034;25.834;2023-05-22T01:57:53;99818.41;;;16.21;100.00
9059;BME280;4564;42.034;25.834;2023-05-22T02:00:22;99812.91;;;16.21;100.00
9059;BME280;4564;42.034;25.834;2023-05-22T02:02:50;99815.31;;;16.17;100.00
9059;BME280;4564;42.034;25.834;2023-05-22T02:05:20;99812.22;;;16.25;100.00
9059;BME280;4564;42.034;25.834;2023-05-22T02:07:47;99808.06;;;16.23;100.00
9059;BME280;4564;42.034;25.834;2023-05-22T02:10:15;99810.56;;;16.24;100.00
9059;BME280;4564;42.034;25.834;2023-05-22T02:12:42;99810.56;;;16.24;100.00
9059;BME280;4564;42.034;25.834;2023-05-22T02:15:10;99807.00;;;16.24;100.00
9059;BME280;4564;42.034;25.834;2023-05-22T02:17:36;99805.66;;;16.26;100.00
9059;BME280;4564;42.034;25.834;2023-05-22T02:20:06;99801.75;;;16.22;100.00
9059;BME280;4564;42.034;25.834;2023-05-22T02:22:42;99797.94;;;16.23;100.00
9059;BME280;4564;42.034;25.834;2023-05-22T02:25:09;99800.06;;;16.21;100.00
9059;BME280;4564;42.034;25.834;2023-05-22T02:27:39;99798.41;;;16.20;100.00
9059;BME280;4564;42.034;25.834;2023-05-22T02:30:06;99797.69;;;16.25;100.00
9059;BME280;4564;42.034;25.834;2023-05-22T02:32:33;99802.69;;;16.28;100.00
9059;BME280;4564;42.034;25.834;2023-05-22T02:35:00;99800.81;;;16.28;100.00
9059;BME280;4564;42.034;25.834;2023-05-22T02:37:27;99797.84;;;16.30;99.86
9059;BME280;4564;42.034;25.834;2023-05-22T02:39:55;99803.66;;;16.33;99.17
9059;BME280;4564;42.034;25.834;2023-05-22T02:42:22;99800.31;;;16.31;97.07
9059;BME280;4564;42.034;25.834;2023-05-22T02:44:48;99789.13;;;16.33;97.69
9059;BME280;4564;42.034;25.834;2023-05-22T02:47:15;99799.25;;;16.32;97.38
9059;BME280;4564;42.034;25.834;2023-05-22T02:49:42;99794.25;;;16.41;96.73
9059;BME280;4564;42.034;25.834;2023-05-22T02:52:08;99807.00;;;16.35;95.02
9059;BME280;4564;42.034;25.834;2023-05-22T02:54:35;99798.53;;;16.37;95.27
9059;BME280;4564;42.034;25.834;2023-05-22T02:57:03;99803.88;;;16.32;98.17
9059;BME280;4564;42.034;25.834;2023-05-22T02:59:30;99804.34;;;16.17;100.00
9059;BME280;4564;42.034;25.834;2023-05-22T03:01:56;99805.53;;;16.10;100.00
9059;BME280;4564;42.034;25.834;2023-05-22T03:04:23;99801.25;;;16.02;100.00
9059;BME280;4564;42.034;25.834;2023-05-22T03:06:50;99802.19;;;15.96;100.00
9059;BME280;4564;42.034;25.834;2023-05-22T03:09:17;99791.09;;;15.91;100.00
9059;BME280;4564;42.034;25.834;2023-05-22T03:11:44;99801.44;;;15.89;100.00
9059;BME280;4564;42.034;25.834;2023-05-22T03:14:12;99801.44;;;15.89;100.00
9059;BME280;4564;42.034;25.834;2023-05-22T03:16:38;99803.09;;;15.90;100.00
9059;BME280;4564;42.034;25.834;2023-05-22T03:19:06;99801.56;;;15.94;99.29
9059;BME280;4564;42.034;25.834;2023-05-22T03:21:32;99803.63;;;16.10;97.07
9059;BME280;4564;42.034;25.834;2023-05-22T03:23:59;99799.22;;;16.21;95.44
9059;BME280;4564;42.034;25.834;2023-05-22T03:26:25;99806.28;;;16.28;95.38
9059;BME280;4564;42.034;25.834;2023-05-22T03:28:53;99805.44;;;16.28;94.02
9059;BME280;4564;42.034;25.834;2023-05-22T03:31:21;99810.09;;;16.27;94.63
9059;BME280;4564;42.034;25.834;2023-05-22T03:33:47;99809.84;;;16.29;95.50
9059;BME280;4564;42.034;25.834;2023-05-22T03:36:14;99802.56;;;16.23;95.16
9059;BME280;4564;42.034;25.834;2023-05-22T03:38:40;99804.25;;;16.24;94.46
9059;BME280;4564;42.034;25.834;2023-05-22T03:41:07;99810.44;;;16.43;93.75
9059;BME280;4564;42.034;25.834;2023-05-22T03:43:34;99810.66;;;16.41;95.81
9059;BME280;4564;42.034;25.834;2023-05-22T03:46:00;99816.03;;;16.48;96.08
9059;BME280;4564;42.034;25.834;2023-05-22T03:48:28;99817.38;;;16.45;96.71
9059;BME280;4564;42.034;25.834;2023-05-22T03:50:55;99818.56;;;16.49;97.91
9059;BME280;4564;42.034;25.834;2023-05-22T03:53:22;99819.16;;;16.40;98.99
9059;BME280;4564;42.034;25.834;2023-05-22T03:55:48;99821.38;;;16.31;100.00
9059;BME280;4564;42.034;25.834;2023-05-22T03:58:15;99830.19;;;16.21;100.00
9059;BME280;4564;42.034;25.834;2023-05-22T04:00:41;99831.03;;;16.22;100.00
9059;BME280;4564;42.034;25.834;2023-05-22T04:03:08;99829.59;;;16.31;100.00
9059;BME280;4564;42.034;25.834;2023-05-22T04:05:38;99826.63;;;16.32;100.00
9059;BME280;4564;42.034;25.834;2023-05-22T04:08:04;99837.38;;;16.34;100.00
9059;BME280;4564;42.034;25.834;2023-05-22T04:10:31;99831.28;;;16.44;100.00
9059;BME280;4564;42.034;25.834;2023-05-22T04:12:59;99824.88;;;16.50;100.00
9059;BME280;4564;42.034;25.834;2023-05-22T04:15:26;99836.09;;;16.60;100.00
9059;BME280;4564;42.034;25.834;2023-05-22T04:17:53;99842.53;;;16.65;99.39
9059;BME280;4564;42.034;25.834;2023-05-22T04:20:20;99846.34;;;16.76;98.24
9059;BME280;4564;42.034;25.834;2023-05-22T04:22:49;99843.59;;;16.88;97.71
9059;BME280;4564;42.034;25.834;2023-05-22T04:25:15;99846.81;;;16.96;96.31
9059;BME280;4564;42.034;25.834;2023-05-22T04:27:42;99859.31;;;17.04;96.60
9059;BME280;4564;42.034;25.834;2023-05-22T04:30:09;99852.38;;;17.13;95.62
9059;BME280;4564;42.034;25.834;2023-05-22T04:32:35;99864.91;;;17.20;94.63
9059;BME280;4564;42.034;25.834;2023-05-22T04:35:02;99865.47;;;17.23;96.43
9059;BME280;4564;42.034;25.834;2023-05-22T04:37:29;99865.25;;;17.24;97.43
9059;BME280;4564;42.034;25.834;2023-05-22T04:39:57;99865.38;;;17.29;98.23
9059;BME280;4564;42.034;25.834;2023-05-22T04:42:29;99869.44;;;17.27;98.77
9059;BME280;4564;42.034;25.834;2023-05-22T04:44:56;99867.75;;;17.26;98.68
9059;BME280;4564;42.034;25.834;2023-05-22T04:47:23;99872.75;;;17.29;99.08
9059;BME280;4564;42.034;25.834;2023-05-22T04:49:49;99870.38;;;17.32;98.56
9059;BME280;4564;42.034;25.834;2023-05-22T04:52:16;99865.69;;;17.44;98.12
9059;BME280;4564;42.034;25.834;2023-05-22T04:54:43;99872.34;;;17.60;96.35
9059;BME280;4564;42.034;25.834;2023-05-22T04:57:12;99866.81;;;17.72;94.33
9059;BME280;4564;42.034;25.834;2023-05-22T04:59:38;99863.69;;;17.80;93.03
9059;BME280;4564;42.034;25.834;2023-05-22T05:02:05;99871.69;;;17.81;95.16
9059;BME280;4564;42.034;25.834;2023-05-22T05:04:32;99878.22;;;17.92;94.79
9059;BME280;4564;42.034;25.834;2023-05-22T05:06:59;99870.78;;;17.92;93.20
9059;BME280;4564;42.034;25.834;2023-05-22T05:09:26;99873.25;;;18.06;93.35
9059;BME280;4564;42.034;25.834;2023-05-22T05:11:53;99875.03;;;18.28;92.25
9059;BME280;4564;42.034;25.834;2023-05-22T05:14:21;99889.97;;;18.49;91.82
9059;BME280;4564;42.034;25.834;2023-05-22T05:16:48;99884.19;;;18.62;89.82
9059;BME280;4564;42.034;25.834;2023-05-22T05:19:15;99887.31;;;18.88;84.96
9059;BME280;4564;42.034;25.834;2023-05-22T05:21:45;99894.13;;;19.02;83.73
9059;BME280;4564;42.034;25.834;2023-05-22T05:24:11;99899.44;;;19.25;82.57
9059;BME280;4564;42.034;25.834;2023-05-22T05:26:38;99896.16;;;19.45;78.24
9059;BME280;4564;42.034;25.834;2023-05-22T05:29:04;99892.38;;;19.73;77.15
9059;BME280;4564;42.034;25.834;2023-05-22T05:31:32;99890.47;;;19.73;74.71
9059;BME280;4564;42.034;25.834;2023-05-22T05:33:59;99881.34;;;19.94;74.03
9059;BME280;4564;42.034;25.834;2023-05-22T05:36:25;99888.22;;;19.92;75.34
9059;BME280;4564;42.034;25.834;2023-05-22T05:38:52;99892.34;;;19.94;73.37
9059;BME280;4564;42.034;25.834;2023-05-22T05:41:19;99893.38;;;19.88;74.46
9059;BME280;4564;42.034;25.834;2023-05-22T05:43:45;99890.28;;;19.80;75.11
9059;BME280;4564;42.034;25.834;2023-05-22T05:46:12;99897.03;;;19.94;73.96
9059;BME280;4564;42.034;25.834;2023-05-22T05:48:40;99881.41;;;19.99;73.06
9059;BME280;4564;42.034;25.834;2023-05-22T05:51:06;99894.75;;;19.86;74.21
9059;BME280;4564;42.034;25.834;2023-05-22T05:53:33;99894.66;;;20.02;74.14
9059;BME280;4564;42.034;25.834;2023-05-22T05:56:01;99895.31;;;20.36;71.80
9059;BME280;4564;42.034;25.834;2023-05-22T05:58:27;99902.19;;;20.66;70.25
9059;BME280;4564;42.034;25.834;2023-05-22T06:00:54;99903.22;;;20.91;69.74
9059;BME280;4564;42.034;25.834;2023-05-22T06:03:21;99903.72;;;21.15;69.33
9059;BME280;4564;42.034;25.834;2023-05-22T06:05:51;99911.63;;;21.49;68.53
9059;BME280;4564;42.034;25.834;2023-05-22T06:08:17;99917.97;;;22.01;66.54
9059;BME280;4564;42.034;25.834;2023-05-22T06:10:46;99911.44;;;22.68;64.72
9059;BME280;4564;42.034;25.834;2023-05-22T06:13:13;99915.28;;;23.28;60.56
9059;BME280;4564;42.034;25.834;2023-05-22T06:15:39;99921.94;;;23.42;59.94
9059;BME280;4564;42.034;25.834;2023-05-22T06:18:06;99914.25;;;23.04;61.94
9059;BME280;4564;42.034;25.834;2023-05-22T06:20:32;99915.34;;;22.97;61.62
9059;BME280;4564;42.034;25.834;2023-05-22T06:23:00;99921.44;;;23.10;61.70
9059;BME280;4564;42.034;25.834;2023-05-22T06:25:27;99924.75;;;23.01;63.30
9059;BME280;4564;42.034;25.834;2023-05-22T06:27:54;99921.16;;;22.86;62.58
9059;BME280;4564;42.034;25.834;2023-05-22T06:30:21;99919.22;;;22.76;63.67
9059;BME280;4564;42.034;25.834;2023-05-22T06:32:48;99917.28;;;22.77;63.86
9059;BME280;4564;42.034;25.834;2023-05-22T06:35:14;99918.91;;;23.23;63.11
9059;BME280;4564;42.034;25.834;2023-05-22T06:37:41;99922.47;;;23.34;63.29
9059;BME280;4564;42.034;25.834;2023-05-22T06:40:09;99919.31;;;23.81;61.81
9059;BME280;4564;42.034;25.834;2023-05-22T06:42:36;99920.06;;;24.07;60.89
9059;BME280;4564;42.034;25.834;2023-05-22T06:45:03;99923.88;;;24.21;61.50
9059;BME280;4564;42.034;25.834;2023-05-22T06:47:30;99919.41;;;24.25;61.17
9059;BME280;4564;42.034;25.834;2023-05-22T06:49:57;99924.44;;;24.62;59.06
9059;BME280;4564;42.034;25.834;2023-05-22T06:52:23;99926.22;;;24.82;58.07
9059;BME280;4564;42.034;25.834;2023-05-22T06:54:50;99928.31;;;25.00;58.34
9059;BME280;4564;42.034;25.834;2023-05-22T06:57:18;99930.03;;;27.13;52.89
9059;BME280;4564;42.034;25.834;2023-05-22T06:59:45;99937.47;;;29.75;45.23
9059;BME280;4564;42.034;25.834;2023-05-22T07:02:12;99926.81;;;32.13;37.44
9059;BME280;4564;42.034;25.834;2023-05-22T07:04:38;99931.97;;;32.81;34.57
9059;BME280;4564;42.034;25.834;2023-05-22T07:07:05;99927.59;;;31.37;37.81
9059;BME280;4564;42.034;25.834;2023-05-22T07:09:31;99941.16;;;30.40;38.58
9059;BME280;4564;42.034;25.834;2023-05-22T07:11:59;99938.75;;;29.07;40.44
9059;BME280;4564;42.034;25.834;2023-05-22T07:14:27;99930.31;;;28.62;42.15
9059;BME280;4564;42.034;25.834;2023-05-22T07:16:54;99934.78;;;28.14;43.91
9059;BME280;4564;42.034;25.834;2023-05-22T07:19:21;99935.91;;;28.13;44.37
9059;BME280;4564;42.034;25.834;2023-05-22T07:21:47;99942.84;;;26.96;45.35
9059;BME280;4564;42.034;25.834;2023-05-22T07:24:14;99941.97;;;26.02;48.20
9059;BME280;4564;42.034;25.834;2023-05-22T07:26:41;99940.38;;;25.43;50.21
9059;BME280;4564;42.034;25.834;2023-05-22T07:29:10;99940.28;;;25.29;53.01
9059;BME280;4564;42.034;25.834;2023-05-22T07:31:38;99936.25;;;25.40;49.69
9059;BME280;4564;42.034;25.834;2023-05-22T07:34:09;99933.03;;;25.28;49.31
9059;BME280;4564;42.034;25.834;2023-05-22T07:36:35;99932.84;;;24.91;50.90
9059;BME280;4564;42.034;25.834;2023-05-22T07:39:02;99936.94;;;25.27;51.46
9059;BME280;4564;42.034;25.834;2023-05-22T07:41:31;99939.94;;;25.36;49.72
9059;BME280;4564;42.034;25.834;2023-05-22T07:43:57;99933.34;;;25.56;50.60
9059;BME280;4564;42.034;25.834;2023-05-22T07:46:24;99901.06;;;25.60;49.75
9059;BME280;4564;42.034;25.834;2023-05-22T07:48:52;99943.22;;;25.67;48.27
9059;BME280;4564;42.034;25.834;2023-05-22T07:51:18;99936.56;;;25.39;50.11
9059;BME280;4564;42.034;25.834;2023-05-22T07:53:45;99937.63;;;26.14;48.70
9059;BME280;4564;42.034;25.834;2023-05-22T07:56:11;99933.09;;;26.23;46.58
9059;BME280;4564;42.034;25.834;2023-05-22T07:58:38;99941.44;;;26.23;46.23
9059;BME280;4564;42.034;25.834;2023-05-22T08:01:05;99935.88;;;26.23;46.75
9059;BME280;4564;42.034;25.834;2023-05-22T08:03:32;99934.38;;;26.31;46.04
9059;BME280;4564;42.034;25.834;2023-05-22T08:06:01;99927.59;;;26.37;45.75
9059;BME280;4564;42.034;25.834;2023-05-22T08:08:28;99930.00;;;26.62;45.58
9059;BME280;4564;42.034;25.834;2023-05-22T08:10:54;99922.53;;;26.95;45.21
9059;BME280;4564;42.034;25.834;2023-05-22T08:13:21;99929.66;;;27.01;43.04
9059;BME280;4564;42.034;25.834;2023-05-22T08:15:47;99925.03;;;27.10;43.49
9059;BME280;4564;42.034;25.834;2023-05-22T08:18:14;99927.34;;;26.90;43.97
9059;BME280;4564;42.034;25.834;2023-05-22T08:20:41;99923.22;;;27.20;44.77
9059;BME280;4564;42.034;25.834;2023-05-22T08:23:09;99932.19;;;27.76;42.37
9059;BME280;4564;42.034;25.834;2023-05-22T08:25:35;99935.28;;;28.02;41.41
9059;BME280;4564;42.034;25.834;2023-05-22T08:28:02;99929.38;;;28.04;43.44
9059;BME280;4564;42.034;25.834;2023-05-22T08:30:29;99925.09;;;28.47;41.83
9059;BME280;4564;42.034;25.834;2023-05-22T08:32:55;99927.81;;;28.38;41.91
9059;BME280;4564;42.034;25.834;2023-05-22T08:35:22;99932.06;;;28.36;41.74
9059;BME280;4564;42.034;25.834;2023-05-22T08:37:48;99930.75;;;28.20;41.36
9059;BME280;4564;42.034;25.834;2023-05-22T08:40:17;99925.09;;;28.47;41.87
9059;BME280;4564;42.034;25.834;2023-05-22T08:42:45;99932.78;;;29.00;41.69
9059;BME280;4564;42.034;25.834;2023-05-22T08:45:12;99922.56;;;29.48;37.98
9059;BME280;4564;42.034;25.834;2023-05-22T08:47:40;99930.88;;;29.71;39.67
9059;BME280;4564;42.034;25.834;2023-05-22T08:50:08;99920.88;;;29.78;38.00
9059;BME280;4564;42.034;25.834;2023-05-22T08:52:36;99927.88;;;29.98;38.53
9059;BME280;4564;42.034;25.834;2023-05-22T08:55:09;99928.25;;;29.66;37.32
9059;BME280;4564;42.034;25.834;2023-05-22T08:57:37;99924.34;;;29.44;38.18
9059;BME280;4564;42.034;25.834;2023-05-22T09:00:04;99923.03;;;29.42;38.33
9059;BME280;4564;42.034;25.834;2023-05-22T09:02:31;99921.41;;;29.18;38.83
9059;BME280;4564;42.034;25.834;2023-05-22T09:04:58;99918.75;;;28.91;39.51
9059;BME280;4564;42.034;25.834;2023-05-22T09:07:26;99924.34;;;27.92;41.15
9059;BME280;4564;42.034;25.834;2023-05-22T09:09:54;99918.00;;;26.99;43.85
9059;BME280;4564;42.034;25.834;2023-05-22T09:12:21;99910.41;;;26.67;45.45
9059;BME280;4564;42.034;25.834;2023-05-22T09:14:49;99904.50;;;26.55;45.24
9059;BME280;4564;42.034;25.834;2023-05-22T09:17:16;99913.81;;;26.46;46.40
9059;BME280;4564;42.034;25.834;2023-05-22T09:19:45;99908.56;;;26.63;47.36
9059;BME280;4564;42.034;25.834;2023-05-22T09:22:12;99905.41;;;26.88;44.69
9059;BME280;4564;42.034;25.834;2023-05-22T09:24:39;99906.03;;;27.31;45.38
9059;BME280;4564;42.034;25.834;2023-05-22T09:27:07;99903.66;;;26.92;45.06
9059;BME280;4564;42.034;25.834;2023-05-22T09:29:45;99905.44;;;27.15;42.59
9059;BME280;4564;42.034;25.834;2023-05-22T09:32:14;99895.03;;;27.21;44.18
9059;BME280;4564;42.034;25.834;2023-05-22T09:34:41;99901.63;;;27.71;43.31
9059;BME280;4564;42.034;25.834;2023-05-22T09:37:09;99901.81;;;28.16;43.71
9059;BME280;4564;42.034;25.834;2023-05-22T09:39:39;99900.69;;;27.89;41.33
9059;BME280;4564;42.034;25.834;2023-05-22T09:42:06;99900.47;;;27.72;41.75
9059;BME280;4564;42.034;25.834;2023-05-22T09:44:33;99895.94;;;27.63;44.02
9059;BME280;4564;42.034;25.834;2023-05-22T09:47:01;99893.47;;;27.61;40.59
9059;BME280;4564;42.034;25.834;2023-05-22T09:49:30;99889.94;;;27.83;41.92
9059;BME280;4564;42.034;25.834;2023-05-22T09:51:56;99883.84;;;27.94;41.53
9059;BME280;4564;42.034;25.834;2023-05-22T09:54:24;99875.34;;;27.45;41.49
9059;BME280;4564;42.034;25.834;2023-05-22T09:56:51;99883.78;;;27.26;42.99
9059;BME280;4564;42.034;25.834;2023-05-22T09:59:23;99888.28;;;26.95;43.56
9059;BME280;4564;42.034;25.834;2023-05-22T10:01:54;99880.94;;;26.66;44.57
9059;BME280;4564;42.034;25.834;2023-05-22T10:04:21;99883.22;;;26.78;44.62
9059;BME280;4564;42.034;25.834;2023-05-22T10:06:50;99880.91;;;26.85;42.45
9059;BME280;4564;42.034;25.834;2023-05-22T10:09:17;99875.94;;;26.50;45.85
9059;BME280;4564;42.034;25.834;2023-05-22T10:11:44;99878.69;;;27.01;46.78
9059;BME280;4564;42.034;25.834;2023-05-22T10:14:11;99877.09;;;27.27;43.84
9059;BME280;4564;42.034;25.834;2023-05-22T10:16:38;99871.66;;;27.36;42.28
9059;BME280;4564;42.034;25.834;2023-05-22T10:19:05;99868.03;;;26.89;42.53
9059;BME280;4564;42.034;25.834;2023-05-22T10:21:32;99857.44;;;27.05;42.90
9059;BME280;4564;42.034;25.834;2023-05-22T10:24:02;99848.28;;;27.18;44.05
9059;BME280;4564;42.034;25.834;2023-05-22T10:26:30;99850.78;;;27.47;42.15
9059;BME280;4564;42.034;25.834;2023-05-22T10:28:58;99854.50;;;27.29;42.40
9059;BME280;4564;42.034;25.834;2023-05-22T10:31:27;99851.38;;;27.03;43.25
9059;BME280;4564;42.034;25.834;2023-05-22T10:33:58;99844.56;;;27.09;44.99
9059;BME280;4564;42.034;25.834;2023-05-22T10:36:31;99844.91;;;26.89;44.97
9059;BME280;4564;42.034;25.834;2023-05-22T10:39:06;99846.44;;;26.81;43.79
9059;BME280;4564;42.034;25.834;2023-05-22T10:41:36;99840.97;;;26.76;43.50
9059;BME280;4564;42.034;25.834;2023-05-22T10:44:03;99842.81;;;26.81;44.44
9059;BME280;4564;42.034;25.834;2023-05-22T10:46:30;99833.19;;;26.41;45.68
9059;BME280;4564;42.034;25.834;2023-05-22T10:48:57;99831.72;;;26.62;46.27
9059;BME280;4564;42.034;25.834;2023-05-22T10:51:24;99829.81;;;27.08;45.35
9059;BME280;4564;42.034;25.834;2023-05-22T10:53:51;99817.53;;;27.78;43.15
9059;BME280;4564;42.034;25.834;2023-05-22T10:56:19;99815.50;;;28.06;41.62
9059;BME280;4564;42.034;25.834;2023-05-22T10:58:54;99808.94;;;28.24;41.09
9059;BME280;4564;42.034;25.834;2023-05-22T11:01:23;99819.94;;;28.20;40.66
9059;BME280;4564;42.034;25.834;2023-05-22T11:03:51;99802.94;;;28.30;41.97
9059;BME280;4564;42.034;25.834;2023-05-22T11:06:31;99805.41;;;28.32;40.18
9059;BME280;4564;42.034;25.834;2023-05-22T11:08:58;99803.94;;;27.98;39.84
9059;BME280;4564;42.034;25.834;2023-05-22T11:11:26;99802.22;;;27.89;40.59
9059;BME280;4564;42.034;25.834;2023-05-22T11:14:00;99796.81;;;27.57;41.83
9059;BME280;4564;42.034;25.834;2023-05-22T11:16:29;99801.13;;;27.22;43.01
9059;BME280;4564;42.034;25.834;2023-05-22T11:18:59;99789.03;;;27.12;44.67
9059;BME280;4564;42.034;25.834;2023-05-22T11:21:27;99784.38;;;27.22;44.56
9059;BME280;4564;42.034;25.834;2023-05-22T11:23:58;99775.81;;;27.45;44.00
9059;BME280;4564;42.034;25.834;2023-05-22T11:26:26;99773.72;;;27.78;42.70
9059;BME280;4564;42.034;25.834;2023-05-22T11:28:53;99775.75;;;27.86;42.82
9059;BME280;4564;42.034;25.834;2023-05-22T11:31:19;99779.63;;;28.13;41.51
9059;BME280;4564;42.034;25.834;2023-05-22T11:33:48;99769.50;;;28.03;39.06
9059;BME280;4564;42.034;25.834;2023-05-22T11:36:15;99769.94;;;27.96;39.88
9059;BME280;4564;42.034;25.834;2023-05-22T11:38:41;99766.84;;;27.62;42.79
9059;BME280;4564;42.034;25.834;2023-05-22T11:41:08;99771.31;;;27.08;41.11
9059;BME280;4564;42.034;25.834;2023-05-22T11:43:37;99759.53;;;27.11;40.10
9059;BME280;4564;42.034;25.834;2023-05-22T11:46:04;99767.56;;;26.99;39.14
9059;BME280;4564;42.034;25.834;2023-05-22T11:48:31;99764.00;;;26.66;40.15
9059;BME280;4564;42.034;25.834;2023-05-22T11:50:57;99759.19;;;26.40;40.98
9059;BME280;4564;42.034;25.834;2023-05-22T11:53:24;99763.53;;;26.46;39.07
9059;BME280;4564;42.034;25.834;2023-05-22T11:55:51;99758.19;;;26.49;36.99
9059;BME280;4564;42.034;25.834;2023-05-22T11:58:20;99754.03;;;26.47;38.22
9059;BME280;4564;42.034;25.834;2023-05-22T12:00:48;99759.03;;;26.50;38.37
9059;BME280;4564;42.034;25.834;2023-05-22T12:03:15;99760.44;;;26.47;38.44
9059;BME280;4564;42.034;25.834;2023-05-22T12:05:43;99760.16;;;26.49;37.90
9059;BME280;4564;42.034;25.834;2023-05-22T12:08:10;99751.34;;;26.42;36.43
9059;BME280;4564;42.034;25.834;2023-05-22T12:10:37;99743.25;;;26.59;37.85
9059;BME280;4564;42.034;25.834;2023-05-22T12:13:04;99745.75;;;26.74;36.37
9059;BME280;4564;42.034;25.834;2023-05-22T12:15:30;99739.75;;;26.67;36.41
9059;BME280;4564;42.034;25.834;2023-05-22T12:17:58;99736.66;;;26.68;38.21
9059;BME280;4564;42.034;25.834;2023-05-22T12:20:27;99738.69;;;26.95;37.42
9059;BME280;4564;42.034;25.834;2023-05-22T12:22:54;99739.63;;;27.04;36.02
9059;BME280;4564;42.034;25.834;2023-05-22T12:25:21;99737.97;;;26.90;35.15
9059;BME280;4564;42.034;25.834;2023-05-22T12:27:49;99735.16;;;26.90;35.94
9059;BME280;4564;42.034;25.834;2023-05-22T12:30:16;99734.34;;;27.17;37.09
9059;BME280;4564;42.034;25.834;2023-05-22T12:32:47;99731.75;;;27.47;36.07
9059;BME280;4564;42.034;25.834;2023-05-22T12:35:15;99732.06;;;27.82;36.07
9059;BME280;4564;42.034;25.834;2023-05-22T12:37:46;99733.88;;;27.64;35.58
9059;BME280;4564;42.034;25.834;2023-05-22T12:40:13;99725.06;;;27.84;36.56
9059;BME280;4564;42.034;25.834;2023-05-22T12:42:40;99723.84;;;27.77;37.14
9059;BME280;4564;42.034;25.834;2023-05-22T12:45:07;99722.22;;;27.62;37.25
9059;BME280;4564;42.034;25.834;2023-05-22T12:47:34;99732.88;;;27.46;37.25
9059;BME280;4564;42.034;25.834;2023-05-22T12:50:00;99736.63;;;27.14;40.16
9059;BME280;4564;42.034;25.834;2023-05-22T12:52:28;99740.09;;;26.79;41.38
9059;BME280;4564;42.034;25.834;2023-05-22T12:54:55;99733.44;;;26.61;42.33
9059;BME280;4564;42.034;25.834;2023-05-22T12:57:21;99735.69;;;26.46;43.50
9059;BME280;4564;42.034;25.834;2023-05-22T12:59:48;99728.41;;;26.50;44.40
9059;BME280;4564;42.034;25.834;2023-05-22T13:02:15;99717.03;;;26.33;43.11
9059;BME280;4564;42.034;25.834;2023-05-22T13:04:41;99725.38;;;26.33;43.92
9059;BME280;4564;42.034;25.834;2023-05-22T13:07:08;99722.50;;;26.38;44.30
9059;BME280;4564;42.034;25.834;2023-05-22T13:09:36;99718.78;;;26.28;43.38
9059;BME280;4564;42.034;25.834;2023-05-22T13:12:02;99717.31;;;26.31;44.40